createdAt,value
2018-03-27T00:00:01.653Z,9.05
2018-03-27T00:02:29.250Z,9.05
2018-03-27T00:04:56.899Z,8.98
2018-03-27T00:07:24.525Z,8.93
2018-03-27T00:09:52.232Z,8.85
2018-03-27T00:12:19.832Z,8.82
2018-03-27T00:14:47.502Z,8.81
2018-03-27T00:17:15.114Z,8.81
2018-03-27T00:19:42.878Z,8.88
2018-03-27T00:22:10.498Z,8.86
2018-03-27T00:24:41.910Z,8.80
2018-03-27T00:27:08.965Z,8.67
2018-03-27T00:29:48.367Z,8.45
2018-03-27T00:32:27.667Z,8.31
2018-03-27T00:35:06.999Z,8.33
2018-03-27T00:37:46.250Z,8.25
2018-03-27T00:40:25.403Z,8.31
2018-03-27T00:42:54.650Z,8.39
2018-03-27T00:45:22.279Z,8.43
2018-03-27T00:47:49.884Z,8.44
2018-03-27T00:50:17.502Z,8.44
2018-03-27T00:52:45.202Z,8.43
2018-03-27T00:55:12.849Z,8.44
2018-03-27T00:57:40.490Z,8.48
2018-03-27T01:00:08.093Z,8.46
2018-03-27T01:02:35.722Z,8.42
2018-03-27T01:05:08.949Z,8.44
2018-03-27T01:07:36.575Z,8.46
2018-03-27T01:10:04.166Z,8.40
2018-03-27T01:12:31.808Z,8.42
2018-03-27T01:14:59.422Z,8.39
2018-03-27T01:17:27.139Z,8.28
2018-03-27T01:19:54.742Z,8.24
2018-03-27T01:22:22.372Z,8.26
2018-03-27T01:24:49.966Z,8.25
2018-03-27T01:27:17.710Z,8.26
2018-03-27T01:29:45.307Z,8.27
2018-03-27T01:32:12.935Z,8.25
2018-03-27T01:34:40.561Z,8.27
2018-03-27T01:37:08.227Z,8.32
2018-03-27T01:39:35.884Z,8.33
2018-03-27T01:42:03.498Z,8.19
2018-03-27T01:44:31.118Z,8.10
2018-03-27T01:46:58.719Z,8.06
2018-03-27T01:49:26.394Z,8.05
2018-03-27T01:51:54.013Z,8.07
2018-03-27T01:54:21.650Z,8.16
2018-03-27T01:56:49.238Z,8.04
2018-03-27T01:59:16.891Z,7.89
2018-03-27T02:01:44.492Z,7.94
2018-03-27T02:04:12.138Z,7.86
2018-03-27T02:06:39.746Z,7.81
2018-03-27T02:09:07.395Z,7.87
2018-03-27T02:11:40.364Z,7.82
2018-03-27T02:14:13.503Z,7.68
2018-03-27T02:16:46.466Z,7.68
2018-03-27T02:19:19.578Z,7.53
2018-03-27T02:21:46.599Z,7.43
2018-03-27T02:24:15.030Z,7.41
2018-03-27T02:26:42.638Z,7.33
2018-03-27T02:29:10.247Z,7.04
2018-03-27T02:31:37.892Z,7.08
2018-03-27T02:34:05.501Z,7.11
2018-03-27T02:36:33.262Z,6.98
2018-03-27T02:39:00.905Z,6.98
2018-03-27T02:41:28.582Z,7.05
2018-03-27T02:43:56.207Z,7.10
2018-03-27T02:46:23.858Z,7.01
2018-03-27T02:48:51.460Z,6.95
2018-03-27T02:51:19.099Z,6.89
2018-03-27T02:53:46.692Z,6.85
2018-03-27T02:56:14.332Z,6.87
2018-03-27T02:58:41.944Z,6.97
2018-03-27T03:01:09.615Z,6.88
2018-03-27T03:03:37.288Z,6.72
2018-03-27T03:06:04.973Z,6.64
2018-03-27T03:08:32.611Z,6.42
2018-03-27T03:11:00.244Z,6.44
2018-03-27T03:13:27.844Z,6.48
2018-03-27T03:15:55.480Z,6.49
2018-03-27T03:18:23.080Z,6.44
2018-03-27T03:20:50.834Z,6.36
2018-03-27T03:23:18.486Z,6.31
2018-03-27T03:25:46.091Z,5.97
2018-03-27T03:28:13.737Z,5.98
2018-03-27T03:30:41.351Z,6.08
2018-03-27T03:33:09.004Z,6.17
2018-03-27T03:35:36.611Z,6.15
2018-03-27T03:38:04.263Z,6.18
2018-03-27T03:40:31.864Z,6.07
2018-03-27T03:42:59.508Z,5.94
2018-03-27T03:45:27.115Z,5.93
2018-03-27T03:47:54.759Z,5.94
2018-03-27T03:50:22.386Z,5.94
2018-03-27T03:52:50.107Z,5.61
2018-03-27T03:55:17.714Z,5.16
2018-03-27T03:57:45.350Z,4.95
2018-03-27T04:00:12.979Z,5.03
2018-03-27T04:02:40.614Z,5.27
2018-03-27T04:05:08.211Z,5.50
2018-03-27T04:07:35.871Z,5.62
2018-03-27T04:10:03.458Z,5.34
2018-03-27T04:12:31.139Z,5.09
2018-03-27T04:14:58.750Z,5.04
2018-03-27T04:17:26.443Z,5.15
2018-03-27T04:19:54.109Z,5.31
2018-03-27T04:22:21.751Z,5.43
2018-03-27T04:24:49.395Z,5.57
2018-03-27T04:27:17.019Z,5.62
2018-03-27T04:29:44.712Z,5.57
2018-03-27T04:32:12.351Z,5.31
2018-03-27T04:34:40.010Z,5.08
2018-03-27T04:37:07.613Z,5.02
2018-03-27T04:39:35.259Z,4.83
2018-03-27T04:42:02.891Z,4.62
2018-03-27T04:44:30.641Z,4.55
2018-03-27T04:46:58.258Z,4.57
2018-03-27T04:49:25.905Z,4.60
2018-03-27T04:51:53.498Z,4.52
2018-03-27T04:54:21.171Z,4.51
2018-03-27T04:56:48.747Z,4.53
2018-03-27T04:59:16.384Z,4.63
2018-03-27T05:01:44.013Z,4.83
2018-03-27T05:04:11.771Z,4.97
2018-03-27T05:06:39.395Z,4.83
2018-03-27T05:09:07.058Z,4.45
2018-03-27T05:11:34.736Z,4.25
2018-03-27T05:14:02.358Z,4.16
2018-03-27T05:16:29.997Z,4.11
2018-03-27T05:18:57.693Z,4.12
2018-03-27T05:21:25.419Z,4.28
2018-03-27T05:23:53.098Z,4.15
2018-03-27T05:26:20.727Z,4.14
2018-03-27T05:28:48.459Z,4.10
2018-03-27T05:31:16.122Z,4.13
2018-03-27T05:33:43.735Z,4.19
2018-03-27T05:36:11.392Z,4.29
2018-03-27T05:38:39.203Z,4.43
2018-03-27T05:41:06.805Z,4.66
2018-03-27T05:43:34.428Z,4.80
2018-03-27T05:46:02.090Z,4.84
2018-03-27T05:48:29.687Z,4.93
2018-03-27T05:50:57.736Z,5.02
2018-03-27T05:53:25.370Z,5.05
2018-03-27T05:55:53.055Z,5.19
2018-03-27T05:58:20.677Z,5.27
2018-03-27T06:00:48.388Z,5.31
2018-03-27T06:03:15.979Z,5.38
2018-03-27T06:05:43.751Z,5.48
2018-03-27T06:08:11.352Z,5.58
2018-03-27T06:10:38.954Z,5.59
2018-03-27T06:13:06.625Z,5.63
2018-03-27T06:15:34.322Z,5.63
2018-03-27T06:18:02.023Z,5.67
2018-03-27T06:20:29.625Z,5.56
2018-03-27T06:22:57.252Z,5.57
2018-03-27T06:25:24.853Z,5.69
2018-03-27T06:27:52.583Z,5.69
2018-03-27T06:30:20.175Z,5.72
2018-03-27T06:32:47.867Z,5.70
2018-03-27T06:35:15.474Z,5.67
2018-03-27T06:37:43.103Z,5.56
2018-03-27T06:40:10.708Z,5.50
2018-03-27T06:42:38.370Z,5.49
2018-03-27T06:45:05.971Z,5.44
2018-03-27T06:47:33.651Z,5.44
2018-03-27T06:50:01.214Z,5.49
2018-03-27T06:52:28.842Z,5.37
2018-03-27T06:54:56.481Z,5.23
2018-03-27T06:57:24.228Z,5.24
2018-03-27T06:59:51.836Z,5.24
2018-03-27T07:02:19.430Z,5.26
2018-03-27T07:04:47.074Z,5.28
2018-03-27T07:07:14.764Z,5.31
2018-03-27T07:09:42.407Z,5.34
2018-03-27T07:12:10.015Z,5.43
2018-03-27T07:14:37.642Z,5.49
2018-03-27T07:17:05.242Z,5.57
2018-03-27T07:19:32.911Z,5.59
2018-03-27T07:22:00.506Z,5.67
2018-03-27T07:24:28.133Z,5.74
2018-03-27T07:26:55.762Z,5.84
2018-03-27T07:29:23.367Z,5.93
2018-03-27T07:31:50.977Z,6.00
2018-03-27T07:34:18.655Z,6.13
2018-03-27T07:36:46.271Z,6.25
2018-03-27T07:39:13.906Z,6.32
2018-03-27T07:41:41.494Z,6.41
2018-03-27T07:44:09.151Z,6.52
2018-03-27T07:46:36.780Z,6.56
2018-03-27T07:49:06.155Z,6.54
2018-03-27T07:51:33.770Z,6.50
2018-03-27T07:54:01.358Z,6.52
2018-03-27T07:56:29.092Z,6.58
2018-03-27T07:58:56.691Z,6.66
2018-03-27T08:01:24.500Z,6.76
2018-03-27T08:03:52.171Z,6.88
2018-03-27T08:06:19.923Z,7.01
2018-03-27T08:08:47.555Z,7.10
2018-03-27T08:11:15.255Z,7.16
2018-03-27T08:13:42.870Z,7.30
2018-03-27T08:16:10.510Z,7.33
2018-03-27T08:18:38.125Z,7.41
2018-03-27T08:21:05.880Z,7.49
2018-03-27T08:23:33.493Z,7.57
2018-03-27T08:26:01.178Z,7.67
2018-03-27T08:28:28.800Z,7.68
2018-03-27T08:30:56.619Z,7.73
2018-03-27T08:33:24.224Z,7.80
2018-03-27T08:35:51.875Z,7.85
2018-03-27T08:38:19.486Z,7.87
2018-03-27T08:40:47.114Z,7.96
2018-03-27T08:43:14.768Z,7.99
2018-03-27T08:45:42.387Z,8.00
2018-03-27T08:48:10.051Z,8.04
2018-03-27T08:50:37.657Z,8.17
2018-03-27T08:53:05.322Z,8.26
2018-03-27T08:55:32.943Z,8.28
2018-03-27T08:58:00.672Z,8.27
2018-03-27T09:00:28.267Z,8.34
2018-03-27T09:02:55.911Z,8.45
2018-03-27T09:05:23.574Z,8.62
2018-03-27T09:07:51.203Z,8.76
2018-03-27T09:10:18.827Z,8.87
2018-03-27T09:12:46.599Z,8.98
2018-03-27T09:15:14.429Z,8.92
2018-03-27T09:17:42.012Z,8.93
2018-03-27T09:20:09.623Z,8.97
2018-03-27T09:22:37.294Z,9.03
2018-03-27T09:25:04.899Z,9.18
2018-03-27T09:27:32.724Z,9.29
2018-03-27T09:30:00.342Z,9.33
2018-03-27T09:32:28.031Z,9.31
2018-03-27T09:34:55.630Z,9.26
2018-03-27T09:37:23.264Z,9.19
2018-03-27T09:39:50.967Z,9.27
2018-03-27T09:42:18.575Z,9.31
2018-03-27T09:44:46.206Z,9.41
2018-03-27T09:47:13.850Z,9.43
2018-03-27T09:49:41.495Z,9.53
2018-03-27T09:52:09.098Z,9.67
2018-03-27T09:54:36.757Z,9.64
2018-03-27T09:57:04.368Z,9.69
2018-03-27T09:59:32.020Z,9.67
2018-03-27T10:01:59.604Z,9.53
2018-03-27T10:04:27.234Z,9.65
2018-03-27T10:06:54.855Z,9.80
2018-03-27T10:09:22.554Z,9.92
2018-03-27T10:11:50.166Z,10.13
2018-03-27T10:14:17.822Z,10.16
2018-03-27T10:16:45.430Z,10.16
2018-03-27T10:19:13.099Z,10.09
2018-03-27T10:21:40.720Z,10.07
2018-03-27T10:24:08.355Z,10.29
2018-03-27T10:26:35.961Z,10.50
2018-03-27T10:29:03.558Z,10.49
2018-03-27T10:31:31.220Z,10.25
2018-03-27T10:33:58.882Z,10.13
2018-03-27T10:36:26.552Z,10.10
2018-03-27T10:38:54.160Z,10.16
2018-03-27T10:41:21.816Z,10.18
2018-03-27T10:43:49.427Z,10.15
2018-03-27T10:46:17.169Z,10.24
2018-03-27T10:48:44.772Z,10.30
2018-03-27T10:51:12.656Z,10.42
2018-03-27T10:53:40.256Z,10.53
2018-03-27T10:56:07.906Z,10.54
2018-03-27T10:58:35.530Z,10.63
2018-03-27T11:01:03.173Z,10.71
2018-03-27T11:03:30.882Z,10.85
2018-03-27T11:05:58.527Z,11.10
2018-03-27T11:08:26.142Z,11.51
2018-03-27T11:10:53.788Z,12.02
2018-03-27T11:13:21.466Z,12.39
2018-03-27T11:15:49.147Z,12.21
2018-03-27T11:18:16.757Z,11.98
2018-03-27T11:20:44.390Z,11.87
2018-03-27T11:23:12.099Z,11.70
2018-03-27T11:25:39.728Z,11.60
2018-03-27T11:28:07.371Z,11.56
2018-03-27T11:30:34.969Z,11.46
2018-03-27T11:33:02.635Z,11.44
2018-03-27T11:35:30.258Z,11.49
2018-03-27T11:37:57.925Z,11.64
2018-03-27T11:40:25.544Z,11.82
2018-03-27T11:42:53.193Z,11.81
2018-03-27T11:45:20.825Z,11.97
2018-03-27T11:47:48.541Z,12.04
2018-03-27T11:50:16.200Z,11.95
2018-03-27T11:52:43.842Z,12.30
2018-03-27T11:55:11.473Z,12.78
2018-03-27T11:57:39.125Z,12.92
2018-03-27T12:00:06.915Z,12.98
2018-03-27T12:02:40.868Z,13.05
2018-03-27T12:05:10.811Z,13.23
2018-03-27T12:07:38.486Z,12.75
2018-03-27T12:10:06.133Z,12.50
2018-03-27T12:12:34.242Z,12.63
2018-03-27T12:15:01.871Z,12.36
2018-03-27T12:17:29.507Z,12.28
2018-03-27T12:19:57.275Z,12.32
2018-03-27T12:22:24.936Z,12.35
2018-03-27T12:24:52.598Z,12.42
2018-03-27T12:27:21.316Z,12.38
2018-03-27T12:29:49.100Z,12.37
2018-03-27T12:32:16.722Z,12.17
2018-03-27T12:34:44.366Z,12.08
2018-03-27T12:37:11.961Z,12.05
2018-03-27T12:39:39.622Z,12.02
2018-03-27T12:42:07.228Z,11.99
2018-03-27T12:44:34.874Z,12.00
2018-03-27T12:47:02.534Z,11.92
2018-03-27T12:49:30.202Z,11.93
2018-03-27T12:51:57.819Z,11.97
2018-03-27T12:54:25.496Z,12.02
2018-03-27T12:56:53.103Z,12.06
2018-03-27T12:59:20.833Z,12.09
2018-03-27T13:01:48.512Z,12.09
2018-03-27T13:04:16.164Z,12.07
2018-03-27T13:06:43.788Z,12.03
2018-03-27T13:09:11.391Z,11.99
2018-03-27T13:11:39.071Z,12.02
2018-03-27T13:14:06.727Z,12.06
2018-03-27T13:16:34.394Z,12.10
2018-03-27T13:19:02.005Z,12.14
2018-03-27T13:21:29.663Z,12.13
2018-03-27T13:23:57.315Z,12.04
2018-03-27T13:26:24.955Z,12.01
2018-03-27T13:28:52.562Z,11.95
2018-03-27T13:31:20.210Z,11.93
2018-03-27T13:33:47.834Z,11.83
2018-03-27T13:36:15.470Z,11.83
2018-03-27T13:38:43.079Z,11.70
2018-03-27T13:41:10.745Z,11.57
2018-03-27T13:43:38.387Z,11.59
2018-03-27T13:46:06.080Z,11.52
2018-03-27T13:48:33.683Z,11.50
2018-03-27T13:51:01.316Z,11.46
2018-03-27T13:53:28.917Z,11.42
2018-03-27T13:55:56.596Z,11.43
2018-03-27T13:58:24.252Z,11.39
2018-03-27T14:00:52.088Z,11.42
2018-03-27T14:03:19.701Z,11.43
2018-03-27T14:05:47.298Z,11.46
2018-03-27T14:08:15.134Z,11.39
2018-03-27T14:10:42.754Z,11.39
2018-03-27T14:13:10.426Z,11.38
2018-03-27T14:15:38.087Z,11.31
2018-03-27T14:18:07.450Z,11.26
2018-03-27T14:20:35.086Z,11.27
2018-03-27T14:23:02.852Z,11.28
2018-03-27T14:25:30.443Z,11.25
2018-03-27T14:27:58.108Z,11.26
2018-03-27T14:30:25.775Z,11.25
2018-03-27T14:32:53.408Z,11.20
2018-03-27T14:35:21.059Z,11.18
2018-03-27T14:37:48.706Z,11.16
2018-03-27T14:40:16.332Z,11.15
2018-03-27T14:42:43.980Z,11.14
2018-03-27T14:45:11.650Z,11.11
2018-03-27T14:47:39.306Z,11.04
2018-03-27T14:50:06.931Z,11.02
2018-03-27T14:52:34.651Z,10.98
2018-03-27T14:55:02.285Z,10.90
2018-03-27T14:57:29.930Z,10.87
2018-03-27T14:59:57.536Z,10.84
2018-03-27T15:02:25.150Z,10.78
2018-03-27T15:04:52.858Z,10.75
2018-03-27T15:07:20.454Z,10.69
2018-03-27T15:09:48.089Z,10.68
2018-03-27T15:12:15.692Z,10.63
2018-03-27T15:14:43.359Z,10.60
2018-03-27T15:17:11.008Z,10.58
2018-03-27T15:19:38.782Z,10.55
2018-03-27T15:22:06.382Z,10.49
2018-03-27T15:24:34.026Z,10.41
2018-03-27T15:27:01.671Z,10.35
2018-03-27T15:29:29.312Z,10.28
2018-03-27T15:31:57.009Z,10.19
2018-03-27T15:34:24.672Z,10.13
2018-03-27T15:36:52.297Z,10.09
2018-03-27T15:39:20.080Z,10.10
2018-03-27T15:41:47.678Z,10.11
2018-03-27T15:44:15.353Z,10.07
2018-03-27T15:46:42.965Z,10.05
2018-03-27T15:49:10.613Z,9.99
2018-03-27T15:51:38.209Z,9.96
2018-03-27T15:54:05.831Z,9.86
2018-03-27T15:56:33.490Z,9.80
2018-03-27T15:59:01.087Z,9.78
2018-03-27T16:01:28.758Z,9.72
2018-03-27T16:03:56.362Z,9.68
2018-03-27T16:06:24.003Z,9.64
2018-03-27T16:08:51.842Z,9.61
2018-03-27T16:11:19.513Z,9.61
2018-03-27T16:13:47.123Z,9.63
2018-03-27T16:16:14.931Z,9.65
2018-03-27T16:18:42.538Z,9.58
2018-03-27T16:21:10.158Z,9.54
2018-03-27T16:23:37.791Z,9.53
2018-03-27T16:26:05.557Z,9.50
2018-03-27T16:28:33.164Z,9.40
2018-03-27T16:31:00.883Z,9.34
2018-03-27T16:33:28.480Z,9.28
2018-03-27T16:35:56.131Z,9.20
2018-03-27T16:38:23.798Z,9.16
2018-03-27T16:40:51.459Z,9.10
2018-03-27T16:43:19.051Z,9.09
2018-03-27T16:45:46.666Z,9.08
2018-03-27T16:48:14.309Z,9.02
2018-03-27T16:50:41.944Z,9.00
2018-03-27T16:53:09.595Z,8.99
2018-03-27T16:55:37.229Z,8.97
2018-03-27T16:58:04.883Z,8.92
2018-03-27T17:00:32.532Z,8.82
2018-03-27T17:03:00.215Z,8.74
2018-03-27T17:05:27.812Z,8.74
2018-03-27T17:07:55.453Z,8.69
2018-03-27T17:10:23.141Z,8.69
2018-03-27T17:12:50.842Z,8.66
2018-03-27T17:15:18.452Z,8.67
2018-03-27T17:17:46.195Z,8.63
2018-03-27T17:20:13.789Z,8.63
2018-03-27T17:22:41.415Z,8.67
2018-03-27T17:25:09.171Z,8.58
2018-03-27T17:27:36.812Z,8.56
2018-03-27T17:30:04.438Z,8.56
2018-03-27T17:32:32.064Z,8.54
2018-03-27T17:34:59.681Z,8.47
2018-03-27T17:37:27.445Z,8.45
2018-03-27T17:39:55.055Z,8.45
2018-03-27T17:42:22.660Z,8.39
2018-03-27T17:44:50.305Z,8.37
2018-03-27T17:47:17.940Z,8.36
2018-03-27T17:49:45.575Z,8.34
2018-03-27T17:52:13.198Z,8.35
2018-03-27T17:54:40.835Z,8.32
2018-03-27T17:57:08.421Z,8.29
2018-03-27T17:59:36.102Z,8.27
2018-03-27T18:02:03.801Z,8.25
2018-03-27T18:04:31.431Z,8.20
2018-03-27T18:06:59.035Z,8.16
2018-03-27T18:09:26.866Z,8.16
2018-03-27T18:11:54.567Z,8.17
2018-03-27T18:14:22.255Z,8.15
2018-03-27T18:16:49.867Z,8.12
2018-03-27T18:19:17.630Z,8.09
2018-03-27T18:21:45.256Z,8.08
2018-03-27T18:24:12.915Z,8.05
2018-03-27T18:26:40.602Z,8.02
2018-03-27T18:29:08.287Z,8.01
2018-03-27T18:31:35.916Z,8.02
2018-03-27T18:34:03.513Z,8.03
2018-03-27T18:36:31.140Z,8.02
2018-03-27T18:38:58.767Z,8.01
2018-03-27T18:41:26.394Z,7.99
2018-03-27T18:43:54.002Z,7.95
2018-03-27T18:46:21.752Z,7.93
2018-03-27T18:48:49.384Z,7.94
2018-03-27T18:51:17.404Z,7.93
2018-03-27T18:53:45.023Z,7.91
2018-03-27T18:56:12.850Z,7.90
2018-03-27T18:58:40.467Z,7.92
2018-03-27T19:01:08.454Z,7.89
2018-03-27T19:03:36.069Z,7.91
2018-03-27T19:06:03.777Z,7.86
2018-03-27T19:08:31.357Z,7.87
2018-03-27T19:10:58.992Z,7.92
2018-03-27T19:13:26.596Z,7.93
2018-03-27T19:15:54.238Z,7.95
2018-03-27T19:18:21.842Z,7.97
2018-03-27T19:20:49.504Z,7.94
2018-03-27T19:23:17.177Z,7.93
2018-03-27T19:25:44.904Z,7.98
2018-03-27T19:28:12.514Z,7.96
2018-03-27T19:30:40.131Z,8.00
2018-03-27T19:33:07.757Z,8.02
2018-03-27T19:35:35.363Z,8.01
2018-03-27T19:38:03.108Z,8.02
2018-03-27T19:40:30.744Z,8.04
2018-03-27T19:42:58.373Z,8.03
2018-03-27T19:45:25.998Z,8.04
2018-03-27T19:47:53.653Z,8.01
2018-03-27T19:50:21.306Z,8.01
2018-03-27T19:52:48.975Z,8.02
2018-03-27T19:55:16.583Z,7.98
2018-03-27T19:57:44.244Z,7.94
2018-03-27T20:00:12.001Z,7.93
2018-03-27T20:02:39.647Z,7.93
2018-03-27T20:05:07.254Z,7.94
2018-03-27T20:07:34.899Z,7.89
2018-03-27T20:10:02.502Z,7.91
2018-03-27T20:12:30.132Z,7.88
2018-03-27T20:14:57.741Z,7.87
2018-03-27T20:17:25.431Z,7.87
2018-03-27T20:19:53.048Z,7.89
2018-03-27T20:22:20.650Z,7.85
2018-03-27T20:24:48.296Z,7.82
2018-03-27T20:27:15.872Z,7.78
2018-03-27T20:29:43.502Z,7.77
2018-03-27T20:32:11.113Z,7.74
2018-03-27T20:34:38.934Z,7.71
2018-03-27T20:37:06.559Z,7.71
2018-03-27T20:39:34.214Z,7.70
2018-03-27T20:42:01.804Z,7.72
2018-03-27T20:44:29.449Z,7.73
2018-03-27T20:46:57.174Z,7.69
2018-03-27T20:49:24.857Z,7.67
2018-03-27T20:51:52.471Z,7.68
2018-03-27T20:54:20.110Z,7.66
2018-03-27T20:56:47.726Z,7.66
2018-03-27T20:59:15.360Z,7.66
2018-03-27T21:01:43.066Z,7.68
2018-03-27T21:04:10.733Z,7.69
2018-03-27T21:06:38.346Z,7.68
2018-03-27T21:09:06.135Z,7.67
2018-03-27T21:11:33.844Z,7.64
2018-03-27T21:14:01.454Z,7.63
2018-03-27T21:16:29.094Z,7.64
2018-03-27T21:18:56.736Z,7.66
2018-03-27T21:21:24.418Z,7.68
2018-03-27T21:23:52.018Z,7.67
2018-03-27T21:26:19.646Z,7.67
2018-03-27T21:28:47.245Z,7.74
2018-03-27T21:31:14.915Z,7.71
2018-03-27T21:33:42.514Z,7.70
2018-03-27T21:36:10.214Z,7.71
2018-03-27T21:38:37.810Z,7.71
2018-03-27T21:41:05.430Z,7.68
2018-03-27T21:43:33.055Z,7.66
2018-03-27T21:46:00.736Z,7.67
2018-03-27T21:48:28.323Z,7.68
2018-03-27T21:50:56.039Z,7.66
2018-03-27T21:53:23.714Z,7.69
2018-03-27T21:55:51.354Z,7.73
2018-03-27T21:58:19.144Z,7.73
2018-03-27T22:00:46.775Z,7.78
2018-03-27T22:03:14.376Z,7.78
2018-03-27T22:05:42.014Z,7.80
2018-03-27T22:08:09.627Z,7.76
2018-03-27T22:10:37.333Z,7.78
2018-03-27T22:13:04.982Z,7.75
2018-03-27T22:15:32.598Z,7.80
2018-03-27T22:18:00.244Z,7.80
2018-03-27T22:20:27.871Z,7.79
2018-03-27T22:22:55.489Z,7.81
2018-03-27T22:25:23.101Z,7.81
2018-03-27T22:27:50.748Z,7.84
2018-03-27T22:30:18.351Z,7.86
2018-03-27T22:32:46.002Z,7.81
2018-03-27T22:35:13.590Z,7.83
2018-03-27T22:37:41.305Z,7.90
2018-03-27T22:40:08.889Z,7.94
2018-03-27T22:42:36.530Z,7.96
2018-03-27T22:45:04.127Z,7.90
2018-03-27T22:47:31.783Z,7.88
2018-03-27T22:49:59.369Z,7.86
2018-03-27T22:52:27.022Z,7.84
2018-03-27T22:54:54.624Z,7.82
2018-03-27T22:57:22.279Z,7.83
2018-03-27T22:59:49.874Z,7.84
2018-03-27T23:02:17.483Z,7.86
2018-03-27T23:04:45.156Z,7.84
2018-03-27T23:07:12.847Z,7.85
2018-03-27T23:09:40.480Z,7.86
2018-03-27T23:12:08.063Z,7.87
2018-03-27T23:14:35.708Z,7.92
2018-03-27T23:17:03.326Z,8.01
2018-03-27T23:19:30.944Z,8.09
2018-03-27T23:21:58.548Z,8.11
2018-03-27T23:24:26.202Z,8.13
2018-03-27T23:26:53.810Z,8.11
2018-03-27T23:29:21.470Z,8.17
2018-03-27T23:31:49.075Z,8.18
2018-03-27T23:34:16.717Z,8.18
2018-03-27T23:36:44.302Z,8.17
2018-03-27T23:39:11.938Z,8.21
2018-03-27T23:41:39.534Z,8.25
2018-03-27T23:44:07.202Z,8.30
2018-03-27T23:46:34.793Z,8.33
2018-03-27T23:49:02.430Z,8.32
2018-03-27T23:51:30.020Z,8.31
2018-03-27T23:53:57.659Z,8.30
2018-03-27T23:56:25.261Z,8.31
2018-03-27T23:58:52.935Z,8.33
